sensor_id;sensor_type;location;lat;lon;timestamp;P1;durP1;ratioP1;P2;durP2;ratioP2
22068;SDS011;13887;57.196;-2.100;2022-12-18T00:01:15;13.50;;;13.00;;
22068;SDS011;13887;57.196;-2.100;2022-12-18T00:03:46;13.47;;;12.97;;
22068;SDS011;13887;57.196;-2.100;2022-12-18T00:06:14;13.67;;;13.17;;
22068;SDS011;13887;57.196;-2.100;2022-12-18T00:08:42;13.60;;;13.10;;
22068;SDS011;13887;57.196;-2.100;2022-12-18T00:11:13;13.53;;;13.03;;
22068;SDS011;13887;57.196;-2.100;2022-12-18T00:13:42;13.63;;;13.13;;
22068;SDS011;13887;57.196;-2.100;2022-12-18T00:16:11;13.40;;;12.90;;
22068;SDS011;13887;57.196;-2.100;2022-12-18T00:18:40;13.90;;;13.40;;
22068;SDS011;13887;57.196;-2.100;2022-12-18T00:21:09;13.70;;;13.20;;
22068;SDS011;13887;57.196;-2.100;2022-12-18T00:23:37;13.80;;;13.30;;
22068;SDS011;13887;57.196;-2.100;2022-12-18T00:26:06;13.90;;;13.40;;
22068;SDS011;13887;57.196;-2.100;2022-12-18T00:28:35;13.23;;;12.77;;
22068;SDS011;13887;57.196;-2.100;2022-12-18T00:31:03;13.80;;;13.30;;
22068;SDS011;13887;57.196;-2.100;2022-12-18T00:33:32;13.53;;;13.03;;
22068;SDS011;13887;57.196;-2.100;2022-12-18T00:36:04;13.67;;;13.17;;
22068;SDS011;13887;57.196;-2.100;2022-12-18T00:38:33;13.80;;;13.30;;
22068;SDS011;13887;57.196;-2.100;2022-12-18T00:41:00;12.97;;;12.57;;
22068;SDS011;13887;57.196;-2.100;2022-12-18T00:43:27;26.77;;;24.57;;
22068;SDS011;13887;57.196;-2.100;2022-12-18T00:45:54;13.90;;;13.40;;
22068;SDS011;13887;57.196;-2.100;2022-12-18T00:48:21;14.40;;;13.90;;
22068;SDS011;13887;57.196;-2.100;2022-12-18T00:50:48;14.23;;;13.73;;
22068;SDS011;13887;57.196;-2.100;2022-12-18T00:53:15;14.17;;;13.67;;
22068;SDS011;13887;57.196;-2.100;2022-12-18T00:55:43;13.97;;;13.47;;
22068;SDS011;13887;57.196;-2.100;2022-12-18T00:58:11;14.20;;;13.70;;
22068;SDS011;13887;57.196;-2.100;2022-12-18T01:00:38;14.40;;;13.90;;
22068;SDS011;13887;57.196;-2.100;2022-12-18T01:03:09;23.47;;;20.80;;
22068;SDS011;13887;57.196;-2.100;2022-12-18T01:05:40;14.40;;;13.90;;
22068;SDS011;13887;57.196;-2.100;2022-12-18T01:08:08;14.47;;;13.97;;
22068;SDS011;13887;57.196;-2.100;2022-12-18T01:10:35;14.50;;;14.00;;
22068;SDS011;13887;57.196;-2.100;2022-12-18T01:13:02;14.30;;;13.80;;
22068;SDS011;13887;57.196;-2.100;2022-12-18T01:15:29;14.40;;;13.90;;
22068;SDS011;13887;57.196;-2.100;2022-12-18T01:17:56;14.70;;;14.20;;
22068;SDS011;13887;57.196;-2.100;2022-12-18T01:20:25;14.20;;;13.70;;
22068;SDS011;13887;57.196;-2.100;2022-12-18T01:22:52;14.13;;;13.63;;
22068;SDS011;13887;57.196;-2.100;2022-12-18T01:25:19;14.50;;;14.00;;
22068;SDS011;13887;57.196;-2.100;2022-12-18T01:27:46;14.50;;;14.00;;
22068;SDS011;13887;57.196;-2.100;2022-12-18T01:30:13;14.33;;;13.83;;
22068;SDS011;13887;57.196;-2.100;2022-12-18T01:32:40;14.67;;;14.17;;
22068;SDS011;13887;57.196;-2.100;2022-12-18T01:35:07;15.17;;;14.57;;
22068;SDS011;13887;57.196;-2.100;2022-12-18T01:37:34;17.73;;;17.03;;
22068;SDS011;13887;57.196;-2.100;2022-12-18T01:40:01;14.40;;;13.90;;
22068;SDS011;13887;57.196;-2.100;2022-12-18T01:42:28;14.30;;;13.80;;
22068;SDS011;13887;57.196;-2.100;2022-12-18T01:47:40;14.20;;;13.70;;
22068;SDS011;13887;57.196;-2.100;2022-12-18T01:50:36;14.20;;;13.70;;
22068;SDS011;13887;57.196;-2.100;2022-12-18T01:53:19;14.30;;;13.80;;
22068;SDS011;13887;57.196;-2.100;2022-12-18T01:58:18;14.40;;;13.90;;
22068;SDS011;13887;57.196;-2.100;2022-12-18T02:00:48;14.40;;;13.90;;
22068;SDS011;13887;57.196;-2.100;2022-12-18T02:03:18;14.57;;;14.07;;
22068;SDS011;13887;57.196;-2.100;2022-12-18T02:16:37;14.27;;;13.77;;
22068;SDS011;13887;57.196;-2.100;2022-12-18T02:22:26;14.27;;;13.77;;
22068;SDS011;13887;57.196;-2.100;2022-12-18T02:27:40;14.17;;;13.67;;
22068;SDS011;13887;57.196;-2.100;2022-12-18T02:30:10;13.93;;;13.43;;
22068;SDS011;13887;57.196;-2.100;2022-12-18T02:32:38;14.07;;;13.57;;
22068;SDS011;13887;57.196;-2.100;2022-12-18T02:35:12;14.00;;;13.50;;
22068;SDS011;13887;57.196;-2.100;2022-12-18T02:37:42;13.93;;;13.43;;
22068;SDS011;13887;57.196;-2.100;2022-12-18T02:40:11;14.00;;;13.50;;
22068;SDS011;13887;57.196;-2.100;2022-12-18T02:42:40;13.97;;;13.47;;
22068;SDS011;13887;57.196;-2.100;2022-12-18T02:45:09;14.00;;;13.50;;
22068;SDS011;13887;57.196;-2.100;2022-12-18T02:47:38;13.57;;;13.07;;
22068;SDS011;13887;57.196;-2.100;2022-12-18T03:01:49;13.63;;;13.13;;
22068;SDS011;13887;57.196;-2.100;2022-12-18T03:04:38;13.83;;;13.33;;
22068;SDS011;13887;57.196;-2.100;2022-12-18T03:07:11;14.00;;;13.50;;
22068;SDS011;13887;57.196;-2.100;2022-12-18T03:09:46;14.23;;;13.73;;
22068;SDS011;13887;57.196;-2.100;2022-12-18T03:15:16;13.80;;;13.30;;
22068;SDS011;13887;57.196;-2.100;2022-12-18T03:17:52;14.03;;;13.53;;
22068;SDS011;13887;57.196;-2.100;2022-12-18T03:20:25;14.00;;;13.50;;
22068;SDS011;13887;57.196;-2.100;2022-12-18T03:22:59;14.50;;;14.00;;
22068;SDS011;13887;57.196;-2.100;2022-12-18T03:25:39;14.07;;;13.57;;
22068;SDS011;13887;57.196;-2.100;2022-12-18T03:28:14;14.77;;;14.27;;
22068;SDS011;13887;57.196;-2.100;2022-12-18T03:30:45;13.87;;;13.37;;
22068;SDS011;13887;57.196;-2.100;2022-12-18T03:35:53;13.50;;;13.00;;
22068;SDS011;13887;57.196;-2.100;2022-12-18T03:38:21;13.60;;;13.10;;
22068;SDS011;13887;57.196;-2.100;2022-12-18T03:44:08;13.87;;;13.37;;
22068;SDS011;13887;57.196;-2.100;2022-12-18T03:52:24;14.20;;;13.70;;
22068;SDS011;13887;57.196;-2.100;2022-12-18T03:54:55;14.20;;;13.70;;
22068;SDS011;13887;57.196;-2.100;2022-12-18T03:57:28;14.33;;;13.83;;
22068;SDS011;13887;57.196;-2.100;2022-12-18T03:59:59;14.00;;;13.50;;
22068;SDS011;13887;57.196;-2.100;2022-12-18T04:02:40;13.87;;;13.37;;
22068;SDS011;13887;57.196;-2.100;2022-12-18T04:05:14;13.97;;;13.47;;
22068;SDS011;13887;57.196;-2.100;2022-12-18T04:07:43;14.00;;;13.50;;
22068;SDS011;13887;57.196;-2.100;2022-12-18T04:10:13;13.93;;;13.43;;
22068;SDS011;13887;57.196;-2.100;2022-12-18T04:12:42;13.90;;;13.40;;
22068;SDS011;13887;57.196;-2.100;2022-12-18T04:15:11;14.20;;;13.70;;
22068;SDS011;13887;57.196;-2.100;2022-12-18T04:17:39;13.93;;;13.43;;
22068;SDS011;13887;57.196;-2.100;2022-12-18T04:20:16;13.60;;;13.10;;
22068;SDS011;13887;57.196;-2.100;2022-12-18T04:22:43;14.20;;;13.70;;
22068;SDS011;13887;57.196;-2.100;2022-12-18T04:25:12;13.90;;;13.40;;
22068;SDS011;13887;57.196;-2.100;2022-12-18T04:27:51;13.63;;;13.13;;
22068;SDS011;13887;57.196;-2.100;2022-12-18T04:30:18;13.87;;;13.37;;
22068;SDS011;13887;57.196;-2.100;2022-12-18T04:32:45;13.90;;;13.40;;
22068;SDS011;13887;57.196;-2.100;2022-12-18T04:35:18;13.83;;;13.33;;
22068;SDS011;13887;57.196;-2.100;2022-12-18T04:37:45;13.70;;;13.20;;
22068;SDS011;13887;57.196;-2.100;2022-12-18T04:40:14;13.97;;;13.47;;
22068;SDS011;13887;57.196;-2.100;2022-12-18T04:42:44;13.73;;;13.23;;
22068;SDS011;13887;57.196;-2.100;2022-12-18T04:45:11;13.67;;;13.17;;
22068;SDS011;13887;57.196;-2.100;2022-12-18T04:47:38;14.33;;;13.83;;
22068;SDS011;13887;57.196;-2.100;2022-12-18T04:50:05;13.87;;;13.37;;
22068;SDS011;13887;57.196;-2.100;2022-12-18T04:52:32;13.80;;;13.30;;
22068;SDS011;13887;57.196;-2.100;2022-12-18T04:54:59;14.20;;;13.70;;
22068;SDS011;13887;57.196;-2.100;2022-12-18T04:57:26;14.50;;;14.00;;
22068;SDS011;13887;57.196;-2.100;2022-12-18T04:59:52;14.20;;;13.70;;
22068;SDS011;13887;57.196;-2.100;2022-12-18T05:02:19;13.80;;;13.30;;
22068;SDS011;13887;57.196;-2.100;2022-12-18T05:04:46;14.13;;;13.63;;
22068;SDS011;13887;57.196;-2.100;2022-12-18T05:07:13;14.20;;;13.70;;
22068;SDS011;13887;57.196;-2.100;2022-12-18T05:09:40;14.10;;;13.60;;
22068;SDS011;13887;57.196;-2.100;2022-12-18T05:12:07;14.40;;;13.90;;
22068;SDS011;13887;57.196;-2.100;2022-12-18T05:14:33;14.50;;;14.00;;
22068;SDS011;13887;57.196;-2.100;2022-12-18T05:17:00;13.70;;;13.20;;
22068;SDS011;13887;57.196;-2.100;2022-12-18T05:19:27;14.43;;;13.93;;
22068;SDS011;13887;57.196;-2.100;2022-12-18T05:21:54;14.13;;;13.63;;
22068;SDS011;13887;57.196;-2.100;2022-12-18T05:24:21;14.20;;;13.70;;
22068;SDS011;13887;57.196;-2.100;2022-12-18T05:26:48;13.67;;;13.17;;
22068;SDS011;13887;57.196;-2.100;2022-12-18T05:29:14;14.30;;;13.80;;
22068;SDS011;13887;57.196;-2.100;2022-12-18T05:31:41;14.00;;;13.50;;
22068;SDS011;13887;57.196;-2.100;2022-12-18T05:34:08;14.33;;;13.83;;
22068;SDS011;13887;57.196;-2.100;2022-12-18T05:36:36;14.07;;;13.57;;
22068;SDS011;13887;57.196;-2.100;2022-12-18T05:39:03;14.13;;;13.63;;
22068;SDS011;13887;57.196;-2.100;2022-12-18T05:41:31;14.17;;;13.67;;
22068;SDS011;13887;57.196;-2.100;2022-12-18T05:43:58;14.60;;;14.10;;
22068;SDS011;13887;57.196;-2.100;2022-12-18T05:46:25;14.20;;;13.70;;
22068;SDS011;13887;57.196;-2.100;2022-12-18T05:48:52;14.33;;;13.83;;
22068;SDS011;13887;57.196;-2.100;2022-12-18T05:51:20;14.20;;;13.70;;
22068;SDS011;13887;57.196;-2.100;2022-12-18T05:53:48;13.73;;;13.23;;
22068;SDS011;13887;57.196;-2.100;2022-12-18T05:56:19;14.30;;;13.80;;
22068;SDS011;13887;57.196;-2.100;2022-12-18T05:58:47;14.37;;;13.87;;
22068;SDS011;13887;57.196;-2.100;2022-12-18T06:01:20;14.37;;;13.87;;
22068;SDS011;13887;57.196;-2.100;2022-12-18T06:03:49;14.17;;;13.67;;
22068;SDS011;13887;57.196;-2.100;2022-12-18T06:06:20;14.17;;;13.67;;
22068;SDS011;13887;57.196;-2.100;2022-12-18T06:08:52;14.20;;;13.70;;
22068;SDS011;13887;57.196;-2.100;2022-12-18T06:11:21;21.37;;;20.37;;
22068;SDS011;13887;57.196;-2.100;2022-12-18T06:13:51;14.00;;;13.50;;
22068;SDS011;13887;57.196;-2.100;2022-12-18T06:16:24;14.13;;;13.63;;
22068;SDS011;13887;57.196;-2.100;2022-12-18T06:18:51;14.47;;;13.97;;
22068;SDS011;13887;57.196;-2.100;2022-12-18T06:21:20;14.00;;;13.50;;
22068;SDS011;13887;57.196;-2.100;2022-12-18T06:23:47;14.30;;;13.80;;
22068;SDS011;13887;57.196;-2.100;2022-12-18T06:26:14;13.93;;;13.43;;
22068;SDS011;13887;57.196;-2.100;2022-12-18T06:28:41;14.30;;;13.80;;
22068;SDS011;13887;57.196;-2.100;2022-12-18T06:31:09;14.40;;;13.90;;
22068;SDS011;13887;57.196;-2.100;2022-12-18T06:33:38;13.93;;;13.43;;
22068;SDS011;13887;57.196;-2.100;2022-12-18T06:36:10;13.50;;;13.00;;
22068;SDS011;13887;57.196;-2.100;2022-12-18T06:38:40;14.20;;;13.70;;
22068;SDS011;13887;57.196;-2.100;2022-12-18T06:43:40;13.87;;;13.37;;
22068;SDS011;13887;57.196;-2.100;2022-12-18T06:46:08;13.90;;;13.40;;
22068;SDS011;13887;57.196;-2.100;2022-12-18T06:48:35;13.63;;;13.13;;
22068;SDS011;13887;57.196;-2.100;2022-12-18T06:51:02;13.77;;;13.27;;
22068;SDS011;13887;57.196;-2.100;2022-12-18T06:53:30;13.90;;;13.40;;
22068;SDS011;13887;57.196;-2.100;2022-12-18T06:56:02;13.80;;;13.30;;
22068;SDS011;13887;57.196;-2.100;2022-12-18T06:58:35;13.97;;;13.47;;
22068;SDS011;13887;57.196;-2.100;2022-12-18T07:01:03;13.57;;;13.07;;
22068;SDS011;13887;57.196;-2.100;2022-12-18T07:03:34;13.63;;;13.13;;
22068;SDS011;13887;57.196;-2.100;2022-12-18T07:06:01;13.87;;;13.37;;
22068;SDS011;13887;57.196;-2.100;2022-12-18T07:08:29;13.50;;;13.00;;
22068;SDS011;13887;57.196;-2.100;2022-12-18T07:10:56;13.17;;;12.77;;
22068;SDS011;13887;57.196;-2.100;2022-12-18T07:13:23;14.07;;;13.57;;
22068;SDS011;13887;57.196;-2.100;2022-12-18T07:15:50;13.37;;;12.93;;
22068;SDS011;13887;57.196;-2.100;2022-12-18T07:18:17;13.47;;;12.97;;
22068;SDS011;13887;57.196;-2.100;2022-12-18T07:20:44;13.60;;;13.10;;
22068;SDS011;13887;57.196;-2.100;2022-12-18T07:23:13;13.30;;;12.90;;
22068;SDS011;13887;57.196;-2.100;2022-12-18T07:25:39;13.60;;;13.10;;
22068;SDS011;13887;57.196;-2.100;2022-12-18T07:28:06;13.30;;;12.90;;
22068;SDS011;13887;57.196;-2.100;2022-12-18T07:30:41;13.60;;;13.10;;
22068;SDS011;13887;57.196;-2.100;2022-12-18T07:33:07;13.20;;;12.80;;
22068;SDS011;13887;57.196;-2.100;2022-12-18T07:35:34;13.87;;;13.37;;
22068;SDS011;13887;57.196;-2.100;2022-12-18T07:38:03;13.50;;;13.00;;
22068;SDS011;13887;57.196;-2.100;2022-12-18T07:40:30;13.33;;;12.93;;
22068;SDS011;13887;57.196;-2.100;2022-12-18T07:42:57;13.23;;;12.83;;
22068;SDS011;13887;57.196;-2.100;2022-12-18T07:45:24;13.20;;;12.80;;
22068;SDS011;13887;57.196;-2.100;2022-12-18T07:47:50;13.47;;;12.97;;
22068;SDS011;13887;57.196;-2.100;2022-12-18T07:50:17;13.20;;;12.80;;
22068;SDS011;13887;57.196;-2.100;2022-12-18T07:52:44;13.00;;;12.60;;
22068;SDS011;13887;57.196;-2.100;2022-12-18T07:55:11;13.10;;;12.70;;
22068;SDS011;13887;57.196;-2.100;2022-12-18T07:57:38;13.57;;;13.07;;
22068;SDS011;13887;57.196;-2.100;2022-12-18T08:00:25;13.20;;;12.80;;
22068;SDS011;13887;57.196;-2.100;2022-12-18T08:02:52;13.40;;;13.00;;
22068;SDS011;13887;57.196;-2.100;2022-12-18T08:05:19;12.93;;;12.53;;
22068;SDS011;13887;57.196;-2.100;2022-12-18T08:07:47;13.60;;;13.10;;
22068;SDS011;13887;57.196;-2.100;2022-12-18T08:10:14;13.63;;;13.13;;
22068;SDS011;13887;57.196;-2.100;2022-12-18T08:12:41;13.17;;;12.77;;
22068;SDS011;13887;57.196;-2.100;2022-12-18T08:15:08;13.20;;;12.80;;
22068;SDS011;13887;57.196;-2.100;2022-12-18T08:17:35;14.03;;;13.53;;
22068;SDS011;13887;57.196;-2.100;2022-12-18T08:20:02;13.70;;;13.20;;
22068;SDS011;13887;57.196;-2.100;2022-12-18T08:22:29;13.93;;;13.43;;
22068;SDS011;13887;57.196;-2.100;2022-12-18T08:24:56;13.70;;;13.20;;
22068;SDS011;13887;57.196;-2.100;2022-12-18T08:27:23;13.80;;;13.30;;
22068;SDS011;13887;57.196;-2.100;2022-12-18T08:29:55;16.87;;;16.17;;
22068;SDS011;13887;57.196;-2.100;2022-12-18T08:32:23;13.50;;;13.00;;
22068;SDS011;13887;57.196;-2.100;2022-12-18T08:34:51;13.50;;;13.00;;
22068;SDS011;13887;57.196;-2.100;2022-12-18T08:37:18;13.70;;;13.20;;
22068;SDS011;13887;57.196;-2.100;2022-12-18T08:39:45;13.00;;;12.60;;
22068;SDS011;13887;57.196;-2.100;2022-12-18T08:42:12;13.17;;;12.77;;
22068;SDS011;13887;57.196;-2.100;2022-12-18T08:45:01;13.10;;;12.70;;
22068;SDS011;13887;57.196;-2.100;2022-12-18T08:47:28;13.43;;;12.97;;
22068;SDS011;13887;57.196;-2.100;2022-12-18T08:49:55;12.93;;;12.53;;
22068;SDS011;13887;57.196;-2.100;2022-12-18T08:52:22;13.37;;;12.87;;
22068;SDS011;13887;57.196;-2.100;2022-12-18T08:54:49;12.90;;;12.50;;
22068;SDS011;13887;57.196;-2.100;2022-12-18T08:57:16;12.67;;;12.27;;
22068;SDS011;13887;57.196;-2.100;2022-12-18T08:59:43;13.10;;;12.70;;
22068;SDS011;13887;57.196;-2.100;2022-12-18T09:02:10;12.70;;;12.30;;
22068;SDS011;13887;57.196;-2.100;2022-12-18T09:04:38;12.43;;;12.03;;
22068;SDS011;13887;57.196;-2.100;2022-12-18T09:07:06;12.57;;;12.17;;
22068;SDS011;13887;57.196;-2.100;2022-12-18T09:09:33;12.93;;;12.53;;
22068;SDS011;13887;57.196;-2.100;2022-12-18T09:12:00;12.80;;;12.40;;
22068;SDS011;13887;57.196;-2.100;2022-12-18T09:14:27;12.40;;;12.00;;
22068;SDS011;13887;57.196;-2.100;2022-12-18T09:16:54;12.27;;;11.87;;
22068;SDS011;13887;57.196;-2.100;2022-12-18T09:19:21;12.60;;;12.20;;
22068;SDS011;13887;57.196;-2.100;2022-12-18T09:21:48;12.60;;;12.20;;
22068;SDS011;13887;57.196;-2.100;2022-12-18T09:24:15;12.00;;;11.60;;
22068;SDS011;13887;57.196;-2.100;2022-12-18T09:26:43;12.47;;;12.07;;
22068;SDS011;13887;57.196;-2.100;2022-12-18T09:29:13;12.30;;;11.90;;
22068;SDS011;13887;57.196;-2.100;2022-12-18T09:31:43;12.07;;;11.67;;
22068;SDS011;13887;57.196;-2.100;2022-12-18T09:34:10;12.40;;;12.00;;
22068;SDS011;13887;57.196;-2.100;2022-12-18T09:36:37;12.13;;;11.73;;
22068;SDS011;13887;57.196;-2.100;2022-12-18T09:39:05;11.57;;;11.17;;
22068;SDS011;13887;57.196;-2.100;2022-12-18T09:47:11;11.77;;;11.37;;
22068;SDS011;13887;57.196;-2.100;2022-12-18T09:49:38;12.00;;;11.60;;
22068;SDS011;13887;57.196;-2.100;2022-12-18T09:55:03;12.17;;;11.77;;
22068;SDS011;13887;57.196;-2.100;2022-12-18T09:57:33;12.17;;;11.77;;
22068;SDS011;13887;57.196;-2.100;2022-12-18T10:00:15;12.00;;;11.60;;
22068;SDS011;13887;57.196;-2.100;2022-12-18T10:02:45;12.47;;;12.07;;
22068;SDS011;13887;57.196;-2.100;2022-12-18T10:05:14;12.03;;;11.63;;
22068;SDS011;13887;57.196;-2.100;2022-12-18T10:13:00;12.03;;;11.63;;
22068;SDS011;13887;57.196;-2.100;2022-12-18T10:28:25;11.50;;;11.10;;
22068;SDS011;13887;57.196;-2.100;2022-12-18T10:30:53;11.60;;;11.20;;
22068;SDS011;13887;57.196;-2.100;2022-12-18T10:33:21;11.60;;;11.20;;
22068;SDS011;13887;57.196;-2.100;2022-12-18T10:35:50;12.20;;;11.80;;
22068;SDS011;13887;57.196;-2.100;2022-12-18T10:46:04;11.50;;;11.10;;
22068;SDS011;13887;57.196;-2.100;2022-12-18T10:53:57;10.80;;;10.50;;
22068;SDS011;13887;57.196;-2.100;2022-12-18T10:56:46;11.10;;;10.80;;
22068;SDS011;13887;57.196;-2.100;2022-12-18T10:59:15;11.60;;;11.20;;
22068;SDS011;13887;57.196;-2.100;2022-12-18T11:04:26;11.40;;;11.00;;
22068;SDS011;13887;57.196;-2.100;2022-12-18T11:06:59;11.60;;;11.20;;
22068;SDS011;13887;57.196;-2.100;2022-12-18T11:09:28;11.17;;;10.87;;
22068;SDS011;13887;57.196;-2.100;2022-12-18T11:11:59;10.87;;;10.57;;
22068;SDS011;13887;57.196;-2.100;2022-12-18T11:14:30;10.53;;;10.23;;
22068;SDS011;13887;57.196;-2.100;2022-12-18T11:17:00;11.47;;;11.07;;
22068;SDS011;13887;57.196;-2.100;2022-12-18T11:19:54;12.23;;;11.83;;
22068;SDS011;13887;57.196;-2.100;2022-12-18T11:22:30;11.40;;;11.00;;
22068;SDS011;13887;57.196;-2.100;2022-12-18T11:27:55;11.67;;;11.27;;
22068;SDS011;13887;57.196;-2.100;2022-12-18T11:38:22;12.10;;;11.70;;
22068;SDS011;13887;57.196;-2.100;2022-12-18T11:41:15;11.97;;;11.57;;
22068;SDS011;13887;57.196;-2.100;2022-12-18T11:43:48;11.83;;;11.43;;
22068;SDS011;13887;57.196;-2.100;2022-12-18T11:46:36;12.27;;;11.87;;
22068;SDS011;13887;57.196;-2.100;2022-12-18T11:49:15;12.00;;;11.60;;
22068;SDS011;13887;57.196;-2.100;2022-12-18T11:51:51;11.93;;;11.53;;
22068;SDS011;13887;57.196;-2.100;2022-12-18T11:54:24;11.80;;;11.40;;
22068;SDS011;13887;57.196;-2.100;2022-12-18T11:56:55;11.60;;;11.20;;
22068;SDS011;13887;57.196;-2.100;2022-12-18T12:08:44;11.57;;;11.17;;
22068;SDS011;13887;57.196;-2.100;2022-12-18T12:27:57;11.90;;;11.50;;
22068;SDS011;13887;57.196;-2.100;2022-12-18T12:38:34;11.60;;;11.20;;
22068;SDS011;13887;57.196;-2.100;2022-12-18T12:41:18;11.40;;;11.00;;
22068;SDS011;13887;57.196;-2.100;2022-12-18T12:44:09;11.03;;;10.73;;
22068;SDS011;13887;57.196;-2.100;2022-12-18T12:46:43;10.87;;;10.57;;
22068;SDS011;13887;57.196;-2.100;2022-12-18T12:49:13;11.73;;;11.33;;
22068;SDS011;13887;57.196;-2.100;2022-12-18T12:51:45;11.43;;;11.03;;
22068;SDS011;13887;57.196;-2.100;2022-12-18T12:54:19;11.70;;;11.30;;
22068;SDS011;13887;57.196;-2.100;2022-12-18T12:56:54;11.60;;;11.20;;
22068;SDS011;13887;57.196;-2.100;2022-12-18T12:59:28;11.13;;;10.83;;
22068;SDS011;13887;57.196;-2.100;2022-12-18T13:02:02;10.77;;;10.47;;
22068;SDS011;13887;57.196;-2.100;2022-12-18T13:07:37;11.40;;;11.00;;
22068;SDS011;13887;57.196;-2.100;2022-12-18T13:12:53;11.67;;;11.27;;
22068;SDS011;13887;57.196;-2.100;2022-12-18T13:15:34;10.67;;;10.37;;
22068;SDS011;13887;57.196;-2.100;2022-12-18T13:18:19;10.73;;;10.43;;
22068;SDS011;13887;57.196;-2.100;2022-12-18T13:23:36;11.00;;;10.70;;
22068;SDS011;13887;57.196;-2.100;2022-12-18T13:31:14;11.30;;;10.90;;
22068;SDS011;13887;57.196;-2.100;2022-12-18T13:34:11;11.70;;;11.30;;
22068;SDS011;13887;57.196;-2.100;2022-12-18T13:36:53;11.63;;;11.23;;
22068;SDS011;13887;57.196;-2.100;2022-12-18T13:39:23;11.40;;;11.00;;
22068;SDS011;13887;57.196;-2.100;2022-12-18T13:44:40;11.30;;;10.90;;
22068;SDS011;13887;57.196;-2.100;2022-12-18T13:50:09;11.53;;;11.13;;
22068;SDS011;13887;57.196;-2.100;2022-12-18T13:53:02;11.83;;;11.43;;
22068;SDS011;13887;57.196;-2.100;2022-12-18T13:55:31;11.97;;;11.57;;
22068;SDS011;13887;57.196;-2.100;2022-12-18T13:58:05;12.50;;;12.10;;
22068;SDS011;13887;57.196;-2.100;2022-12-18T14:00:34;11.90;;;11.50;;
22068;SDS011;13887;57.196;-2.100;2022-12-18T14:03:01;11.97;;;11.57;;
22068;SDS011;13887;57.196;-2.100;2022-12-18T14:08:01;12.10;;;11.70;;
22068;SDS011;13887;57.196;-2.100;2022-12-18T14:10:35;12.30;;;11.90;;
22068;SDS011;13887;57.196;-2.100;2022-12-18T14:13:36;11.87;;;11.47;;
22068;SDS011;13887;57.196;-2.100;2022-12-18T14:16:04;12.50;;;12.10;;
22068;SDS011;13887;57.196;-2.100;2022-12-18T14:18:51;12.63;;;12.23;;
22068;SDS011;13887;57.196;-2.100;2022-12-18T14:21:40;12.23;;;11.83;;
22068;SDS011;13887;57.196;-2.100;2022-12-18T14:24:13;12.40;;;12.00;;
22068;SDS011;13887;57.196;-2.100;2022-12-18T14:26:45;12.57;;;12.17;;
22068;SDS011;13887;57.196;-2.100;2022-12-18T14:32:04;11.47;;;11.07;;
22068;SDS011;13887;57.196;-2.100;2022-12-18T14:34:35;12.50;;;12.10;;
22068;SDS011;13887;57.196;-2.100;2022-12-18T14:37:02;12.00;;;11.60;;
22068;SDS011;13887;57.196;-2.100;2022-12-18T14:39:30;11.50;;;11.10;;
22068;SDS011;13887;57.196;-2.100;2022-12-18T14:41:57;12.43;;;12.03;;
22068;SDS011;13887;57.196;-2.100;2022-12-18T14:44:24;12.77;;;12.37;;
22068;SDS011;13887;57.196;-2.100;2022-12-18T14:47:00;11.80;;;11.40;;
22068;SDS011;13887;57.196;-2.100;2022-12-18T14:49:31;11.57;;;11.17;;
22068;SDS011;13887;57.196;-2.100;2022-12-18T14:52:03;12.30;;;11.90;;
22068;SDS011;13887;57.196;-2.100;2022-12-18T14:54:34;12.40;;;12.00;;
22068;SDS011;13887;57.196;-2.100;2022-12-18T14:59:48;11.30;;;10.93;;
22068;SDS011;13887;57.196;-2.100;2022-12-18T15:02:23;11.80;;;11.40;;
22068;SDS011;13887;57.196;-2.100;2022-12-18T15:07:46;11.80;;;11.40;;
22068;SDS011;13887;57.196;-2.100;2022-12-18T15:12:43;11.10;;;10.80;;
22068;SDS011;13887;57.196;-2.100;2022-12-18T15:18:00;11.10;;;10.80;;
22068;SDS011;13887;57.196;-2.100;2022-12-18T15:20:29;11.67;;;11.27;;
22068;SDS011;13887;57.196;-2.100;2022-12-18T15:22:58;11.57;;;11.17;;
22068;SDS011;13887;57.196;-2.100;2022-12-18T15:27:55;11.00;;;10.70;;
22068;SDS011;13887;57.196;-2.100;2022-12-18T15:30:22;10.83;;;10.53;;
22068;SDS011;13887;57.196;-2.100;2022-12-18T15:32:50;11.33;;;10.97;;
22068;SDS011;13887;57.196;-2.100;2022-12-18T15:35:22;11.50;;;11.10;;
22068;SDS011;13887;57.196;-2.100;2022-12-18T15:37:51;11.60;;;11.20;;
22068;SDS011;13887;57.196;-2.100;2022-12-18T15:40:20;11.10;;;10.80;;
22068;SDS011;13887;57.196;-2.100;2022-12-18T15:42:49;11.60;;;11.20;;
22068;SDS011;13887;57.196;-2.100;2022-12-18T15:45:37;11.13;;;10.83;;
22068;SDS011;13887;57.196;-2.100;2022-12-18T15:48:11;11.60;;;11.20;;
22068;SDS011;13887;57.196;-2.100;2022-12-18T15:50:45;11.40;;;11.00;;
22068;SDS011;13887;57.196;-2.100;2022-12-18T15:53:13;11.67;;;11.27;;
22068;SDS011;13887;57.196;-2.100;2022-12-18T15:55:40;12.10;;;11.70;;
22068;SDS011;13887;57.196;-2.100;2022-12-18T15:58:26;11.17;;;10.87;;
22068;SDS011;13887;57.196;-2.100;2022-12-18T16:00:53;11.50;;;11.10;;
22068;SDS011;13887;57.196;-2.100;2022-12-18T16:03:22;11.53;;;11.13;;
22068;SDS011;13887;57.196;-2.100;2022-12-18T16:05:50;11.53;;;11.13;;
22068;SDS011;13887;57.196;-2.100;2022-12-18T16:08:17;11.47;;;11.07;;
22068;SDS011;13887;57.196;-2.100;2022-12-18T16:10:45;11.73;;;11.33;;
22068;SDS011;13887;57.196;-2.100;2022-12-18T16:13:12;13.20;;;12.80;;
22068;SDS011;13887;57.196;-2.100;2022-12-18T16:15:44;12.50;;;12.10;;
22068;SDS011;13887;57.196;-2.100;2022-12-18T16:18:11;12.60;;;12.20;;
22068;SDS011;13887;57.196;-2.100;2022-12-18T16:20:38;12.70;;;12.30;;
22068;SDS011;13887;57.196;-2.100;2022-12-18T16:23:06;12.50;;;12.10;;
22068;SDS011;13887;57.196;-2.100;2022-12-18T16:25:33;12.33;;;11.93;;
22068;SDS011;13887;57.196;-2.100;2022-12-18T16:28:00;12.30;;;11.90;;
22068;SDS011;13887;57.196;-2.100;2022-12-18T16:30:28;12.27;;;11.87;;
22068;SDS011;13887;57.196;-2.100;2022-12-18T16:33:03;11.87;;;11.47;;
22068;SDS011;13887;57.196;-2.100;2022-12-18T16:35:30;12.07;;;11.67;;
22068;SDS011;13887;57.196;-2.100;2022-12-18T16:37:57;12.40;;;12.00;;
22068;SDS011;13887;57.196;-2.100;2022-12-18T16:40:24;11.73;;;11.33;;
22068;SDS011;13887;57.196;-2.100;2022-12-18T16:42:51;12.13;;;11.73;;
22068;SDS011;13887;57.196;-2.100;2022-12-18T16:45:18;12.07;;;11.67;;
22068;SDS011;13887;57.196;-2.100;2022-12-18T16:47:45;11.80;;;11.40;;
22068;SDS011;13887;57.196;-2.100;2022-12-18T16:50:12;11.90;;;11.50;;
22068;SDS011;13887;57.196;-2.100;2022-12-18T16:52:39;11.97;;;11.57;;
22068;SDS011;13887;57.196;-2.100;2022-12-18T16:55:07;11.57;;;11.17;;
22068;SDS011;13887;57.196;-2.100;2022-12-18T16:57:34;11.80;;;11.40;;
22068;SDS011;13887;57.196;-2.100;2022-12-18T17:00:02;12.10;;;11.70;;
22068;SDS011;13887;57.196;-2.100;2022-12-18T17:02:31;12.23;;;11.83;;
22068;SDS011;13887;57.196;-2.100;2022-12-18T17:04:59;11.80;;;11.40;;
22068;SDS011;13887;57.196;-2.100;2022-12-18T17:07:27;11.07;;;10.77;;
22068;SDS011;13887;57.196;-2.100;2022-12-18T17:09:54;11.50;;;11.10;;
22068;SDS011;13887;57.196;-2.100;2022-12-18T17:12:21;11.40;;;11.00;;
22068;SDS011;13887;57.196;-2.100;2022-12-18T17:14:48;11.67;;;11.27;;
22068;SDS011;13887;57.196;-2.100;2022-12-18T17:17:16;11.70;;;11.30;;
22068;SDS011;13887;57.196;-2.100;2022-12-18T17:19:48;11.40;;;11.00;;
22068;SDS011;13887;57.196;-2.100;2022-12-18T17:22:15;11.63;;;11.23;;